createdAt,value
2019-04-04T00:01:20.544Z,26.27
2019-04-04T00:03:51.522Z,26.85
2019-04-04T00:06:19.773Z,28.62
2019-04-04T00:08:48.578Z,26.20
2019-04-04T00:11:17.320Z,27.35
2019-04-04T00:13:46.072Z,26.82
2019-04-04T00:16:16.079Z,26.77
2019-04-04T00:18:45.373Z,27.60
2019-04-04T00:21:14.123Z,27.05
2019-04-04T00:23:42.938Z,27.07
2019-04-04T00:26:11.978Z,27.35
2019-04-04T00:28:40.718Z,26.70
2019-04-04T00:31:09.523Z,27.93
2019-04-04T00:33:38.278Z,27.20
2019-04-04T00:36:07.026Z,25.40
2019-04-04T00:38:37.719Z,25.72
2019-04-04T00:41:06.294Z,25.43
2019-04-04T00:43:35.038Z,26.02
2019-04-04T00:46:03.813Z,29.65
2019-04-04T00:48:34.271Z,31.20
2019-04-04T00:51:03.058Z,27.93
2019-04-04T00:53:32.753Z,33.73
2019-04-04T00:56:01.578Z,25.60
2019-04-04T00:58:30.323Z,26.42
2019-04-04T01:00:59.160Z,25.52
2019-04-04T01:03:28.110Z,26.30
2019-04-04T01:05:58.383Z,27.37
2019-04-04T01:08:27.178Z,26.85
2019-04-04T01:10:55.914Z,27.73
2019-04-04T01:13:27.582Z,26.75
2019-04-04T01:15:55.149Z,25.65
2019-04-04T01:18:23.894Z,24.52
2019-04-04T01:20:52.683Z,24.40
2019-04-04T01:23:21.439Z,25.50
2019-04-04T01:25:50.178Z,23.62
2019-04-04T01:28:18.943Z,23.92
2019-04-04T01:30:47.688Z,24.00
2019-04-04T01:33:19.675Z,24.07
2019-04-04T01:35:46.958Z,23.87
2019-04-04T01:38:15.693Z,25.60
2019-04-04T01:40:44.458Z,24.95
2019-04-04T01:43:13.218Z,23.55
2019-04-04T01:45:43.721Z,24.10
2019-04-04T01:48:12.484Z,22.55
2019-04-04T01:50:41.209Z,23.67
2019-04-04T01:53:09.985Z,23.83
2019-04-04T01:55:38.747Z,23.67
2019-04-04T01:58:08.018Z,23.22
2019-04-04T02:00:38.012Z,21.52
2019-04-04T02:03:06.770Z,21.87
2019-04-04T02:05:35.546Z,20.85
2019-04-04T02:08:04.612Z,20.77
2019-04-04T02:10:34.955Z,20.65
2019-04-04T02:13:04.248Z,20.05
2019-04-04T02:15:33.054Z,20.72
2019-04-04T02:18:01.887Z,20.15
2019-04-04T02:20:30.608Z,20.27
2019-04-04T02:23:01.175Z,19.95
2019-04-04T02:25:29.906Z,18.37
2019-04-04T02:27:58.726Z,19.95
2019-04-04T02:30:27.467Z,21.60
2019-04-04T02:32:59.438Z,24.07
2019-04-04T02:35:26.767Z,21.90
2019-04-04T02:37:56.176Z,21.00
2019-04-04T02:40:25.228Z,20.32
2019-04-04T02:42:55.394Z,23.62
2019-04-04T02:45:24.450Z,22.05
2019-04-04T02:47:53.247Z,22.20
2019-04-04T02:50:22.028Z,21.48
2019-04-04T02:52:50.826Z,22.40
2019-04-04T02:55:19.590Z,22.70
2019-04-04T02:57:48.411Z,20.70
2019-04-04T03:00:17.771Z,20.48
2019-04-04T03:02:46.585Z,20.80
2019-04-04T03:05:18.752Z,21.37
2019-04-04T03:07:45.867Z,19.37
2019-04-04T03:10:16.490Z,19.62
2019-04-04T03:12:45.149Z,21.17
2019-04-04T03:15:13.911Z,19.57
2019-04-04T03:17:42.764Z,20.40
2019-04-04T03:20:16.265Z,19.48
2019-04-04T03:22:42.028Z,17.05
2019-04-04T03:25:14.440Z,19.57
2019-04-04T03:27:41.331Z,19.30
2019-04-04T03:30:14.602Z,19.85
2019-04-04T03:32:41.071Z,20.75
2019-04-04T03:35:09.856Z,19.73
2019-04-04T03:37:40.956Z,19.45
2019-04-04T03:40:09.491Z,18.48
2019-04-04T03:42:38.310Z,19.52
2019-04-04T03:45:07.550Z,17.52
2019-04-04T03:47:36.316Z,18.98
2019-04-04T03:50:06.831Z,18.77
2019-04-04T03:52:35.630Z,17.82
2019-04-04T03:55:06.772Z,17.70
2019-04-04T03:57:35.670Z,19.73
2019-04-04T04:00:07.574Z,18.23
2019-04-04T04:02:36.551Z,19.65
2019-04-04T04:05:08.229Z,18.57
2019-04-04T04:07:37.011Z,19.15
2019-04-04T04:10:06.812Z,19.05
2019-04-04T04:12:35.636Z,19.07
2019-04-04T04:15:05.640Z,19.30
2019-04-04T04:17:36.246Z,19.82
2019-04-04T04:20:06.056Z,19.02
2019-04-04T04:22:34.809Z,18.80
2019-04-04T04:25:03.819Z,17.85
2019-04-04T04:27:32.770Z,19.55
2019-04-04T04:30:06.125Z,19.57
2019-04-04T04:32:32.207Z,19.50
2019-04-04T04:35:00.998Z,19.30
2019-04-04T04:37:29.809Z,19.75
2019-04-04T04:39:58.591Z,18.73
2019-04-04T04:42:27.567Z,19.60
2019-04-04T04:44:56.410Z,19.50
2019-04-04T04:47:25.169Z,18.85
2019-04-04T04:49:55.502Z,18.42
2019-04-04T04:52:24.468Z,16.95
2019-04-04T04:54:54.803Z,17.95
2019-04-04T04:57:29.782Z,17.25
2019-04-04T04:59:54.312Z,17.57
2019-04-04T05:02:23.083Z,16.27
2019-04-04T05:04:51.867Z,16.77
2019-04-04T05:07:20.611Z,16.20
2019-04-04T05:09:49.468Z,16.35
2019-04-04T05:12:18.245Z,15.85
2019-04-04T05:14:46.988Z,15.90
2019-04-04T05:17:15.811Z,18.30
2019-04-04T05:19:45.218Z,16.23
2019-04-04T05:22:14.049Z,15.65
2019-04-04T05:24:42.828Z,19.02
2019-04-04T05:27:11.596Z,17.27
2019-04-04T05:29:40.397Z,18.50
2019-04-04T05:32:09.170Z,17.32
2019-04-04T05:34:38.035Z,16.30
2019-04-04T05:37:07.299Z,16.48
2019-04-04T05:39:36.790Z,22.50
2019-04-04T05:42:05.679Z,19.48
2019-04-04T05:44:34.467Z,21.07
2019-04-04T05:47:03.229Z,19.92
2019-04-04T05:49:32.017Z,18.62
2019-04-04T05:52:00.830Z,19.20
2019-04-04T05:54:29.630Z,15.18
2019-04-04T05:56:58.389Z,18.52
2019-04-04T05:59:27.229Z,18.27
2019-04-04T06:01:55.969Z,16.27
2019-04-04T06:04:24.849Z,18.02
2019-04-04T06:06:55.600Z,18.17
2019-04-04T06:09:24.149Z,17.77
2019-04-04T06:11:53.761Z,17.87
2019-04-04T06:14:22.735Z,15.83
2019-04-04T06:16:51.529Z,19.55
2019-04-04T06:19:20.289Z,20.82
2019-04-04T06:21:49.898Z,18.35
2019-04-04T06:24:19.354Z,18.80
2019-04-04T06:26:48.115Z,16.52
2019-04-04T06:29:17.347Z,18.40
2019-04-04T06:31:46.851Z,17.20
2019-04-04T06:34:15.629Z,15.35
2019-04-04T06:36:44.409Z,19.95
2019-04-04T06:39:13.171Z,17.52
2019-04-04T06:41:41.989Z,16.52
2019-04-04T06:44:12.757Z,12.73
2019-04-04T06:46:41.230Z,16.77
2019-04-04T06:49:10.022Z,18.12
2019-04-04T06:51:38.791Z,15.43
2019-04-04T06:54:07.574Z,14.73
2019-04-04T06:56:36.352Z,15.78
2019-04-04T06:59:05.123Z,15.93
2019-04-04T07:01:33.892Z,16.05
2019-04-04T07:04:02.653Z,15.88
2019-04-04T07:06:31.413Z,15.15
2019-04-04T07:09:00.152Z,15.53
2019-04-04T07:11:28.955Z,13.90
2019-04-04T07:13:59.186Z,14.47
2019-04-04T07:16:28.192Z,15.83
2019-04-04T07:18:56.952Z,15.15
2019-04-04T07:21:25.702Z,16.67
2019-04-04T07:23:54.513Z,11.00
2019-04-04T07:26:23.244Z,12.98
2019-04-04T07:28:53.974Z,16.12
2019-04-04T07:31:22.493Z,15.63
2019-04-04T07:33:51.252Z,15.55
2019-04-04T07:36:20.828Z,16.60
2019-04-04T07:38:49.684Z,13.93
2019-04-04T07:41:18.404Z,14.63
2019-04-04T07:43:47.192Z,13.53
2019-04-04T07:46:17.157Z,13.88
2019-04-04T07:48:46.132Z,13.58
2019-04-04T07:51:14.874Z,14.95
2019-04-04T07:53:43.612Z,10.88
2019-04-04T07:56:14.257Z,12.73
2019-04-04T07:58:42.826Z,12.13
2019-04-04T08:01:11.632Z,12.68
2019-04-04T08:03:40.415Z,11.75
2019-04-04T08:06:09.172Z,12.58
2019-04-04T08:08:37.990Z,13.35
2019-04-04T08:11:06.772Z,11.28
2019-04-04T08:13:35.592Z,12.33
2019-04-04T08:16:05.232Z,11.63
2019-04-04T08:18:33.962Z,11.97
2019-04-04T08:21:05.529Z,10.55
2019-04-04T08:23:33.193Z,9.00
2019-04-04T08:26:02.293Z,9.43
2019-04-04T08:28:31.045Z,11.97
2019-04-04T08:30:59.772Z,9.78
2019-04-04T08:33:28.512Z,10.65
2019-04-04T08:36:05.942Z,9.70
2019-04-04T08:38:27.773Z,9.73
2019-04-04T08:40:56.533Z,12.10
2019-04-04T08:43:25.272Z,12.33
2019-04-04T08:45:54.073Z,10.58
2019-04-04T08:48:22.812Z,11.80
2019-04-04T08:50:51.592Z,12.00
2019-04-04T08:53:20.352Z,12.20
2019-04-04T08:55:49.173Z,11.85
2019-04-04T08:58:17.912Z,13.40
2019-04-04T09:00:46.653Z,11.97
2019-04-04T09:03:15.432Z,12.30
2019-04-04T09:05:44.233Z,11.22
2019-04-04T09:08:13.013Z,11.38
2019-04-04T09:10:41.732Z,10.82
2019-04-04T09:13:10.592Z,10.82
2019-04-04T09:15:39.372Z,10.10
2019-04-04T09:18:08.132Z,11.03
2019-04-04T09:20:36.933Z,9.30
2019-04-04T09:23:05.692Z,11.55
2019-04-04T09:25:34.432Z,11.73
2019-04-04T09:28:03.235Z,10.88
2019-04-04T09:30:31.982Z,10.50
2019-04-04T09:33:00.773Z,10.40
2019-04-04T09:35:29.533Z,10.32
2019-04-04T09:37:58.293Z,10.40
2019-04-04T09:40:27.073Z,7.55
2019-04-04T09:42:55.803Z,9.40
2019-04-04T09:45:24.612Z,10.05
2019-04-04T09:47:53.352Z,8.58
2019-04-04T09:50:22.073Z,9.05
2019-04-04T09:52:50.893Z,8.55
2019-04-04T09:55:19.717Z,9.28
2019-04-04T09:57:48.532Z,9.63
2019-04-04T10:00:20.936Z,9.78
2019-04-04T10:02:49.675Z,10.32
2019-04-04T10:05:18.693Z,8.38
2019-04-04T10:07:47.432Z,10.38
2019-04-04T10:10:16.993Z,8.05
2019-04-04T10:12:45.734Z,8.85
2019-04-04T10:15:15.143Z,8.95
2019-04-04T10:17:44.412Z,8.10
2019-04-04T10:20:13.262Z,7.28
2019-04-04T10:22:42.054Z,8.93
2019-04-04T10:25:10.973Z,8.68
2019-04-04T10:27:39.773Z,8.60
2019-04-04T10:30:10.292Z,7.20
2019-04-04T10:32:39.263Z,7.87
2019-04-04T10:35:08.612Z,8.73
2019-04-04T10:37:37.414Z,8.33
2019-04-04T10:40:07.814Z,6.92
2019-04-04T10:42:36.592Z,6.95
2019-04-04T10:45:07.412Z,7.97
2019-04-04T10:47:36.212Z,8.33
2019-04-04T10:50:09.673Z,8.18
2019-04-04T10:52:38.517Z,8.00
2019-04-04T10:55:08.052Z,8.65
2019-04-04T10:57:36.793Z,7.95
2019-04-04T11:00:09.756Z,8.35
2019-04-04T11:02:38.512Z,7.55
2019-04-04T11:05:07.513Z,7.95
2019-04-04T11:07:36.353Z,7.53
2019-04-04T11:10:06.735Z,7.78
2019-04-04T11:12:35.494Z,7.47
2019-04-04T11:15:06.234Z,7.42
2019-04-04T11:17:35.032Z,8.08
2019-04-04T11:20:05.213Z,7.00
2019-04-04T11:22:33.953Z,7.30
2019-04-04T11:25:02.712Z,8.55
2019-04-04T11:27:31.481Z,7.95
2019-04-04T11:30:00.234Z,8.55
2019-04-04T11:32:28.992Z,8.10
2019-04-04T11:34:57.793Z,7.70
2019-04-04T11:37:26.573Z,5.90
2019-04-04T11:39:55.418Z,7.40
2019-04-04T11:42:24.193Z,7.45
2019-04-04T11:44:52.936Z,7.55
2019-04-04T11:47:21.712Z,8.05
2019-04-04T11:49:50.561Z,7.40
2019-04-04T11:52:19.340Z,7.50
2019-04-04T11:54:49.682Z,6.85
2019-04-04T11:57:18.420Z,7.03
2019-04-04T11:59:47.212Z,7.40
2019-04-04T12:02:15.961Z,7.33
2019-04-04T12:04:44.692Z,7.45
2019-04-04T12:07:13.509Z,8.08
2019-04-04T12:09:42.232Z,8.25
2019-04-04T12:12:11.015Z,7.20
2019-04-04T12:14:39.752Z,6.80
2019-04-04T12:17:08.517Z,7.40
2019-04-04T12:19:37.252Z,6.42
2019-04-04T12:22:05.981Z,8.50
2019-04-04T12:24:34.773Z,7.10
2019-04-04T12:27:03.514Z,7.53
2019-04-04T12:29:32.273Z,7.22
2019-04-04T12:32:01.053Z,7.50
2019-04-04T12:34:29.794Z,7.40
2019-04-04T12:36:58.595Z,7.45
2019-04-04T12:39:27.332Z,7.58
2019-04-04T12:41:56.082Z,7.05
2019-04-04T12:44:24.832Z,7.20
2019-04-04T12:46:53.574Z,7.90
2019-04-04T12:49:22.372Z,6.92
2019-04-04T12:51:51.132Z,5.97
2019-04-04T12:54:19.892Z,8.08
2019-04-04T12:56:48.696Z,8.55
2019-04-04T12:59:17.513Z,6.95
2019-04-04T13:01:46.293Z,7.20
2019-04-04T13:04:15.034Z,10.08
2019-04-04T13:06:43.813Z,8.58
2019-04-04T13:09:12.593Z,8.88
2019-04-04T13:11:41.373Z,9.90
2019-04-04T13:14:10.156Z,8.50
2019-04-04T13:16:38.900Z,8.18
2019-04-04T13:19:07.745Z,7.72
2019-04-04T13:21:36.492Z,7.92
2019-04-04T13:24:05.513Z,7.37
2019-04-04T13:26:34.292Z,7.67
2019-04-04T13:29:03.075Z,7.28
2019-04-04T13:31:31.892Z,8.05
2019-04-04T13:34:00.637Z,8.00
2019-04-04T13:36:29.396Z,6.70
2019-04-04T13:38:58.180Z,7.83
2019-04-04T13:41:26.933Z,7.58
2019-04-04T13:43:55.742Z,7.30
2019-04-04T13:46:25.883Z,7.90
2019-04-04T13:48:54.934Z,7.87
2019-04-04T13:51:25.500Z,6.20
2019-04-04T13:53:54.472Z,7.78
2019-04-04T13:56:23.272Z,8.20
2019-04-04T13:58:52.053Z,8.18
2019-04-04T14:01:20.795Z,8.58
2019-04-04T14:03:49.594Z,7.47
2019-04-04T14:06:18.349Z,7.90
2019-04-04T14:08:47.113Z,6.33
2019-04-04T14:11:15.913Z,8.33
2019-04-04T14:13:44.647Z,7.70
2019-04-04T14:16:13.394Z,6.72
2019-04-04T14:18:44.484Z,7.70
2019-04-04T14:21:12.714Z,8.13
2019-04-04T14:23:45.168Z,8.28
2019-04-04T14:26:12.932Z,7.92
2019-04-04T14:28:41.652Z,7.67
2019-04-04T14:31:12.430Z,8.18
2019-04-04T14:33:41.474Z,8.50
2019-04-04T14:36:10.232Z,7.90
2019-04-04T14:38:38.954Z,8.20
2019-04-04T14:41:11.538Z,9.05
2019-04-04T14:43:39.640Z,7.53
2019-04-04T14:46:08.414Z,7.90
2019-04-04T14:48:38.053Z,8.08
2019-04-04T14:51:06.893Z,8.45
2019-04-04T14:53:35.672Z,8.58
2019-04-04T14:56:04.513Z,8.48
2019-04-04T14:58:33.273Z,8.40
2019-04-04T15:01:02.258Z,7.95
2019-04-04T15:03:31.040Z,8.18
2019-04-04T15:05:59.813Z,8.43
2019-04-04T15:08:28.554Z,8.05
2019-04-04T15:10:57.461Z,7.92
2019-04-04T15:13:26.256Z,8.48
2019-04-04T15:16:13.039Z,8.33
2019-04-04T15:18:41.894Z,8.13
2019-04-04T15:21:11.052Z,7.30
2019-04-04T15:23:39.854Z,8.20
2019-04-04T15:26:09.887Z,8.83
2019-04-04T15:28:38.767Z,8.80
2019-04-04T15:31:07.796Z,9.95
2019-04-04T15:33:36.553Z,8.55
2019-04-04T15:36:05.278Z,8.10
2019-04-04T15:38:35.259Z,8.05
2019-04-04T15:41:04.095Z,8.68
2019-04-04T15:43:32.813Z,8.53
2019-04-04T15:46:01.613Z,8.55
2019-04-04T15:48:30.355Z,7.45
2019-04-04T15:50:59.114Z,8.25
2019-04-04T15:53:27.935Z,8.53
2019-04-04T15:55:56.667Z,8.30
2019-04-04T15:58:25.713Z,8.28
2019-04-04T16:00:54.683Z,8.25
2019-04-04T16:03:23.452Z,9.18
2019-04-04T16:05:52.194Z,7.97
2019-04-04T16:08:21.033Z,8.78
2019-04-04T16:10:49.769Z,9.23
2019-04-04T16:13:18.534Z,8.43
2019-04-04T16:15:47.350Z,9.25
2019-04-04T16:18:17.575Z,9.15
2019-04-04T16:20:46.314Z,9.68
2019-04-04T16:23:15.129Z,9.40
2019-04-04T16:25:43.912Z,9.40
2019-04-04T16:28:12.652Z,9.45
2019-04-04T16:30:41.492Z,9.35
2019-04-04T16:33:10.204Z,9.65
2019-04-04T16:35:38.994Z,9.33
2019-04-04T16:38:07.773Z,8.93
2019-04-04T16:40:36.553Z,9.83
2019-04-04T16:43:05.294Z,10.35
2019-04-04T16:45:34.113Z,10.28
2019-04-04T16:48:02.893Z,10.60
2019-04-04T16:50:31.732Z,9.88
2019-04-04T16:53:00.553Z,10.53
2019-04-04T16:55:29.293Z,10.98
2019-04-04T16:57:58.056Z,11.00
2019-04-04T17:00:27.574Z,11.35
2019-04-04T17:02:56.333Z,10.78
2019-04-04T17:05:25.193Z,11.33
2019-04-04T17:07:53.993Z,11.75
2019-04-04T17:10:22.734Z,12.15
2019-04-04T17:12:51.521Z,10.28
2019-04-04T17:15:21.894Z,10.75
2019-04-04T17:17:50.656Z,10.18
2019-04-04T17:20:20.887Z,10.40
2019-04-04T17:22:49.773Z,12.70
2019-04-04T17:25:18.615Z,13.88
2019-04-04T17:27:47.392Z,13.13
2019-04-04T17:30:17.852Z,12.65
2019-04-04T17:32:48.884Z,12.68
2019-04-04T17:35:17.194Z,12.90
2019-04-04T17:37:46.014Z,13.53
2019-04-04T17:40:16.137Z,12.85
2019-04-04T17:42:45.339Z,12.93
2019-04-04T17:45:15.392Z,13.43
2019-04-04T17:47:44.274Z,12.73
2019-04-04T17:50:15.489Z,12.33
2019-04-04T17:52:44.992Z,13.78
2019-04-04T17:55:14.452Z,12.73
2019-04-04T17:57:43.312Z,13.40
2019-04-04T18:00:14.633Z,13.68
2019-04-04T18:02:43.449Z,13.28
2019-04-04T18:05:12.632Z,13.32
2019-04-04T18:07:41.401Z,12.55
2019-04-04T18:10:11.113Z,13.80
2019-04-04T18:12:40.828Z,14.70
2019-04-04T18:15:10.093Z,14.28
2019-04-04T18:17:38.852Z,13.70
2019-04-04T18:20:08.988Z,14.07
2019-04-04T18:22:38.033Z,15.00
2019-04-04T18:25:07.834Z,14.83
2019-04-04T18:27:36.614Z,15.35
2019-04-04T18:30:08.334Z,15.38
2019-04-04T18:32:37.213Z,14.78
2019-04-04T18:35:07.672Z,14.80
2019-04-04T18:37:37.069Z,15.10
2019-04-04T18:40:08.392Z,15.30
2019-04-04T18:42:37.177Z,16.07
2019-04-04T18:45:07.613Z,16.23
2019-04-04T18:47:36.435Z,16.75
2019-04-04T18:50:06.994Z,16.42
2019-04-04T18:52:35.874Z,16.62
2019-04-04T18:55:18.685Z,17.25
2019-04-04T18:57:37.015Z,16.27
2019-04-04T19:00:09.113Z,16.57
2019-04-04T19:02:38.092Z,17.77
2019-04-04T19:05:07.673Z,17.37
2019-04-04T19:07:39.528Z,21.73
2019-04-04T19:10:09.000Z,17.57
2019-04-04T19:12:37.892Z,22.15
2019-04-04T19:15:07.815Z,18.10
2019-04-04T19:17:36.889Z,18.82
2019-04-04T19:20:10.417Z,18.52
2019-04-04T19:22:39.560Z,19.37
2019-04-04T19:25:09.812Z,18.10
2019-04-04T19:27:38.722Z,18.20
2019-04-04T19:30:09.073Z,17.77
2019-04-04T19:32:38.033Z,18.80
2019-04-04T19:35:08.272Z,18.07
2019-04-04T19:37:37.213Z,19.35
2019-04-04T19:40:09.133Z,19.23
2019-04-04T19:42:38.080Z,28.73
2019-04-04T19:45:08.614Z,27.17
2019-04-04T19:47:37.492Z,23.18
2019-04-04T19:50:10.932Z,29.70
2019-04-04T19:52:39.773Z,31.97
2019-04-04T19:55:09.353Z,34.20
2019-04-04T19:57:38.174Z,31.90
2019-04-04T20:00:09.013Z,26.25
2019-04-04T20:02:38.623Z,27.93
2019-04-04T20:05:08.461Z,25.70
2019-04-04T20:07:37.212Z,33.00
2019-04-04T20:10:07.296Z,26.87
2019-04-04T20:12:36.292Z,23.35
2019-04-04T20:15:08.313Z,23.12
2019-04-04T20:17:37.234Z,24.00
2019-04-04T20:20:07.993Z,23.65
2019-04-04T20:22:36.843Z,22.65
2019-04-04T20:25:09.060Z,23.45
2019-04-04T20:27:37.856Z,23.15
2019-04-04T20:30:09.033Z,23.50
2019-04-04T20:32:37.956Z,22.32
2019-04-04T20:35:08.353Z,22.85
2019-04-04T20:37:37.139Z,22.73
2019-04-04T20:40:06.953Z,22.98
2019-04-04T20:42:35.693Z,23.15
2019-04-04T20:45:05.792Z,22.32
2019-04-04T20:47:34.633Z,23.27
2019-04-04T20:50:04.400Z,23.05
2019-04-04T20:52:33.152Z,22.93
2019-04-04T20:55:01.952Z,22.73
2019-04-04T20:57:30.693Z,22.67
2019-04-04T20:59:59.419Z,23.40
2019-04-04T21:02:28.232Z,22.52
2019-04-04T21:04:56.993Z,23.65
2019-04-04T21:07:25.756Z,22.48
2019-04-04T21:09:54.573Z,23.05
2019-04-04T21:12:23.334Z,23.50
2019-04-04T21:14:52.073Z,23.18
2019-04-04T21:17:20.873Z,22.70
2019-04-04T21:19:49.635Z,22.60
2019-04-04T21:22:27.505Z,23.22
2019-04-04T21:24:48.933Z,23.45
2019-04-04T21:27:18.885Z,22.55
2019-04-04T21:29:47.812Z,23.47
2019-04-04T21:32:16.614Z,24.25
2019-04-04T21:34:45.353Z,27.70
2019-04-04T21:37:14.134Z,33.53
2019-04-04T21:39:42.953Z,25.95
2019-04-04T21:42:11.735Z,25.55
2019-04-04T21:44:40.495Z,24.25
2019-04-04T21:47:09.313Z,24.82
2019-04-04T21:49:38.072Z,24.60
2019-04-04T21:52:06.802Z,27.15
2019-04-04T21:54:35.634Z,27.10
2019-04-04T21:57:04.392Z,28.02
2019-04-04T21:59:33.133Z,28.35
2019-04-04T22:02:01.935Z,27.40
2019-04-04T22:04:30.693Z,27.75
2019-04-04T22:06:59.443Z,28.07
2019-04-04T22:09:28.273Z,27.60
2019-04-04T22:11:57.033Z,26.62
2019-04-04T22:14:25.794Z,25.90
2019-04-04T22:16:54.661Z,26.05
2019-04-04T22:19:23.434Z,25.97
2019-04-04T22:21:52.192Z,25.32
2019-04-04T22:24:22.421Z,25.00
2019-04-04T22:26:51.475Z,25.23
2019-04-04T22:29:20.253Z,24.40
2019-04-04T22:31:49.079Z,25.65
2019-04-04T22:34:17.834Z,25.43
2019-04-04T22:36:46.642Z,24.95
2019-04-04T22:39:15.513Z,24.45
2019-04-04T22:41:44.255Z,25.05
2019-04-04T22:44:13.667Z,24.90
2019-04-04T22:46:42.683Z,26.93
2019-04-04T22:49:11.748Z,26.07
2019-04-04T22:51:40.686Z,24.77
2019-04-04T22:54:09.728Z,24.45
2019-04-04T22:56:38.610Z,24.63
2019-04-04T22:59:07.628Z,25.43
2019-04-04T23:01:36.607Z,27.80
2019-04-04T23:04:05.648Z,27.70
2019-04-04T23:06:34.548Z,27.25
2019-04-04T23:09:04.569Z,26.90
2019-04-04T23:11:33.448Z,26.85
2019-04-04T23:14:02.449Z,24.65
2019-04-04T23:16:31.449Z,28.62
2019-04-04T23:19:00.348Z,26.87
2019-04-04T23:21:29.348Z,26.97
2019-04-04T23:23:58.388Z,27.90
2019-04-04T23:26:27.750Z,28.67
2019-04-04T23:28:56.729Z,27.95
2019-04-04T23:31:25.787Z,27.17
2019-04-04T23:33:54.767Z,27.32
2019-04-04T23:36:34.350Z,28.90
2019-04-04T23:38:54.551Z,26.75
2019-04-04T23:41:23.446Z,25.52
2019-04-04T23:43:52.427Z,27.40
2019-04-04T23:46:21.787Z,26.62
2019-04-04T23:48:50.836Z,28.20
2019-04-04T23:51:19.748Z,26.65
2019-04-04T23:53:48.748Z,25.85
2019-04-04T23:56:17.729Z,26.05
2019-04-04T23:58:46.732Z,25.77
